Time;durP1;ratioP1;P1;durP2;ratioP2;P2;SDS_P1;SDS_P2;PMS_P1;PMS_P2;Temp;Humidity;BMP_temperature;BMP_pressure;BME280_temperature;BME280_humidity;BME280_pressure;Samples;Min_cycle;Max_cycle;Signal;HPM_P1;HPM_P2
2023/11/28 00:00:32;;;;;;;7.97;6.53;;;2.00;99.90;;;;;;5031773;28;20676;-60
2023/11/28 00:02:59;;;;;;;7.93;6.57;;;2.00;99.90;;;;;;5033419;28;20660;-58
2023/11/28 00:05:26;;;;;;;7.75;7.00;;;2.00;99.90;;;;;;5033393;28;20318;-61
2023/11/28 00:07:53;;;;;;;8.48;6.10;;;2.00;99.90;;;;;;5033494;28;20217;-62
2023/11/28 00:10:20;;;;;;;7.20;6.45;;;2.00;99.90;;;;;;5033562;28;20237;-61
2023/11/28 00:12:48;;;;;;;7.18;6.47;;;2.00;99.90;;;;;;5033442;28;20304;-59
2023/11/28 00:15:16;;;;;;;6.53;5.88;;;2.00;99.90;;;;;;5033088;28;20654;-63
2023/11/28 00:17:43;;;;;;;10.35;6.22;;;2.10;99.90;;;;;;5033083;28;20203;-62
2023/11/28 00:20:11;;;;;;;6.75;5.43;;;2.10;99.90;;;;;;5033541;28;20210;-59
2023/11/28 00:22:37;;;;;;;7.32;5.90;;;2.10;99.90;;;;;;5033462;28;20292;-62
2023/11/28 00:25:05;;;;;;;7.72;6.28;;;2.10;99.90;;;;;;5033178;28;20227;-61
2023/11/28 00:27:32;;;;;;;5.28;4.70;;;2.10;99.90;;;;;;5032800;28;20293;-62
2023/11/28 00:30:01;;;;;;;4.90;4.50;;;2.10;99.90;;;;;;5033348;28;20459;-61
2023/11/28 00:32:27;;;;;;;5.28;4.78;;;2.10;99.90;;;;;;5033262;28;20818;-62
2023/11/28 00:34:54;;;;;;;5.72;5.22;;;2.10;99.90;;;;;;5033027;28;20341;-63
2023/11/28 00:37:21;;;;;;;6.32;5.68;;;2.10;99.90;;;;;;5032886;28;20622;-58
2023/11/28 00:39:48;;;;;;;5.20;4.70;;;2.10;99.90;;;;;;5033037;28;20203;-60
2023/11/28 00:42:15;;;;;;;5.00;4.10;;;2.10;99.90;;;;;;5032783;28;20233;-60
2023/11/28 00:44:42;;;;;;;6.10;5.60;;;2.10;99.90;;;;;;5033030;28;20235;-62
2023/11/28 00:47:10;;;;;;;5.47;4.10;;;2.10;99.90;;;;;;5032769;28;20210;-62
2023/11/28 00:49:40;;;;;;;5.35;4.93;;;2.10;99.90;;;;;;5032130;28;20301;-61
2023/11/28 00:52:08;;;;;;;6.18;4.85;;;2.10;99.90;;;;;;5032587;28;20207;-59
2023/11/28 00:54:35;;;;;;;4.18;3.80;;;2.00;99.90;;;;;;5032556;28;20578;-60
2023/11/28 00:57:02;;;;;;;5.05;4.55;;;2.10;99.90;;;;;;5032252;28;20211;-59
2023/11/28 00:59:30;;;;;;;5.43;4.93;;;2.10;99.90;;;;;;5032813;28;20290;-60
2023/11/28 01:01:56;;;;;;;6.38;4.45;;;2.10;99.90;;;;;;5032561;28;20608;-58
2023/11/28 01:04:24;;;;;;;4.67;4.17;;;2.10;99.90;;;;;;5032375;28;20230;-58
2023/11/28 01:06:51;;;;;;;4.28;3.92;;;2.10;99.90;;;;;;5031970;28;20449;-58
2023/11/28 01:09:18;;;;;;;3.58;3.30;;;2.10;99.90;;;;;;5032292;28;20207;-60
2023/11/28 01:11:44;;;;;;;5.90;4.00;;;2.10;99.90;;;;;;5031163;28;20315;-60
2023/11/28 01:14:11;;;;;;;5.47;4.35;;;2.10;99.90;;;;;;5032330;28;20317;-61
2023/11/28 01:16:38;;;;;;;4.22;3.88;;;2.10;99.90;;;;;;5031772;28;20203;-57
2023/11/28 01:19:05;;;;;;;3.90;3.60;;;2.10;99.90;;;;;;5032366;28;20586;-60
2023/11/28 01:21:33;;;;;;;4.47;3.63;;;2.10;99.90;;;;;;5032224;28;20205;-60
2023/11/28 01:24:00;;;;;;;3.83;3.53;;;2.10;99.90;;;;;;5031933;28;20222;-59
2023/11/28 01:26:26;;;;;;;4.85;4.18;;;2.10;99.90;;;;;;5031066;28;20217;-60
2023/11/28 01:28:53;;;;;;;3.15;2.92;;;2.10;99.90;;;;;;5031132;28;20677;-61
2023/11/28 01:31:20;;;;;;;4.38;3.97;;;2.10;99.90;;;;;;5031724;28;20230;-58
2023/11/28 01:33:47;;;;;;;2.88;2.67;;;2.10;99.90;;;;;;5031795;28;20227;-58
2023/11/28 01:36:14;;;;;;;4.15;3.75;;;2.10;99.90;;;;;;5031770;28;20203;-56
2023/11/28 01:38:43;;;;;;;3.67;3.05;;;2.10;99.90;;;;;;5031621;28;20215;-60
2023/11/28 01:41:10;;;;;;;4.30;3.38;;;2.00;99.90;;;;;;5031949;28;20253;-59
2023/11/28 01:43:37;;;;;;;6.00;4.15;;;2.00;99.90;;;;;;5031877;28;20231;-60
2023/11/28 01:46:07;;;;;;;5.45;4.38;;;2.00;99.90;;;;;;5031485;28;20238;-57
2023/11/28 01:48:35;;;;;;;5.07;4.05;;;2.00;99.90;;;;;;5031599;28;20765;-60
2023/11/28 01:51:02;;;;;;;4.38;3.97;;;2.00;99.90;;;;;;5031395;28;20230;-57
2023/11/28 01:53:31;;;;;;;3.40;3.10;;;2.00;99.90;;;;;;5031748;28;20314;-60
2023/11/28 01:55:59;;;;;;;5.43;3.63;;;2.00;99.90;;;;;;5031466;28;20699;-58
2023/11/28 01:58:26;;;;;;;4.40;3.92;;;2.00;99.90;;;;;;5031476;28;20207;-58
2023/11/28 02:00:53;;;;;;;5.30;4.80;;;2.00;99.90;;;;;;5031435;28;20290;-61
2023/11/28 02:03:22;;;;;;;6.80;5.22;;;2.00;99.90;;;;;;5031297;28;20242;-60
2023/11/28 02:05:49;;;;;;;5.35;3.90;;;2.00;99.90;;;;;;5065109;22;20627;-59
2023/11/28 02:08:17;;;;;;;4.57;4.15;;;2.00;99.90;;;;;;5051185;28;20203;-59
2023/11/28 02:10:44;;;;;;;4.80;4.30;;;2.00;99.90;;;;;;5051457;28;20249;-59
2023/11/28 02:13:12;;;;;;;4.93;4.28;;;2.00;99.90;;;;;;5051338;28;20715;-59
2023/11/28 02:15:40;;;;;;;5.15;3.92;;;2.00;99.90;;;;;;5051311;28;20240;-60
2023/11/28 02:18:07;;;;;;;4.65;4.25;;;2.00;99.90;;;;;;5051229;28;20238;-61
2023/11/28 02:20:34;;;;;;;3.65;3.35;;;2.00;99.90;;;;;;5051314;28;20294;-61
2023/11/28 02:23:01;;;;;;;5.28;3.83;;;2.00;99.90;;;;;;5051023;28;20680;-60
2023/11/28 02:25:32;;;;;;;4.25;3.75;;;2.00;99.90;;;;;;5050914;28;20317;-60
2023/11/28 02:28:00;;;;;;;5.00;4.57;;;2.00;99.90;;;;;;5051177;28;20652;-60
2023/11/28 02:30:27;;;;;;;3.70;3.40;;;2.00;99.90;;;;;;5051250;28;20232;-60
2023/11/28 02:32:54;;;;;;;5.93;5.35;;;2.00;99.90;;;;;;5051165;28;20214;-60
2023/11/28 02:35:20;;;;;;;5.65;4.30;;;2.00;99.90;;;;;;5051053;28;20226;-60
2023/11/28 02:37:48;;;;;;;4.20;3.80;;;2.00;99.90;;;;;;5050774;28;20710;-60
2023/11/28 02:40:15;;;;;;;5.40;4.90;;;2.00;99.90;;;;;;5050720;28;20212;-57
2023/11/28 02:42:41;;;;;;;5.53;4.32;;;2.00;99.90;;;;;;5051189;28;20202;-58
2023/11/28 02:45:11;;;;;;;4.40;3.92;;;2.00;99.90;;;;;;5051104;28;20233;-58
2023/11/28 02:47:37;;;;;;;4.05;3.58;;;2.00;99.90;;;;;;5050827;28;20663;-58
2023/11/28 02:50:05;;;;;;;4.28;3.88;;;2.00;99.90;;;;;;5050948;28;20205;-59
2023/11/28 02:52:32;;;;;;;3.80;3.50;;;2.00;99.90;;;;;;5050904;28;20230;-58
2023/11/28 02:54:59;;;;;;;3.95;3.58;;;2.00;99.90;;;;;;5051119;28;20606;-60
2023/11/28 02:57:26;;;;;;;3.97;3.65;;;2.00;99.90;;;;;;5050854;28;20206;-60
2023/11/28 02:59:53;;;;;;;5.22;3.33;;;2.00;99.90;;;;;;5051203;28;20625;-60
2023/11/28 03:02:21;;;;;;;5.00;4.20;;;2.00;99.90;;;;;;5050847;28;20202;-60
2023/11/28 03:04:48;;;;;;;3.50;3.20;;;2.00;99.90;;;;;;5050794;28;20230;-60
2023/11/28 03:07:15;;;;;;;6.65;5.70;;;2.10;99.90;;;;;;5050533;28;20214;-60
2023/11/28 03:09:41;;;;;;;3.58;3.22;;;2.10;99.90;;;;;;5050988;28;20293;-58
2023/11/28 03:12:09;;;;;;;4.53;4.13;;;2.10;99.90;;;;;;5050862;28;20701;-60
2023/11/28 03:14:36;;;;;;;4.18;3.65;;;2.10;99.90;;;;;;5050557;28;20206;-60
2023/11/28 03:17:03;;;;;;;3.95;3.65;;;2.10;99.90;;;;;;5050496;28;20206;-60
2023/11/28 03:19:31;;;;;;;3.60;3.30;;;2.10;99.90;;;;;;5050715;28;20209;-60
2023/11/28 03:21:58;;;;;;;5.22;4.68;;;2.10;99.90;;;;;;5050739;28;20213;-59
2023/11/28 03:24:25;;;;;;;5.15;4.20;;;2.10;99.90;;;;;;5050623;28;20301;-59
2023/11/28 03:26:52;;;;;;;6.20;5.65;;;2.10;99.90;;;;;;5050458;28;20211;-60
2023/11/28 03:29:19;;;;;;;4.00;3.70;;;2.10;99.90;;;;;;5050754;28;20293;-60
2023/11/28 03:31:46;;;;;;;4.57;4.05;;;2.10;99.90;;;;;;5050617;28;20227;-58
2023/11/28 03:34:13;;;;;;;4.63;4.13;;;2.10;99.90;;;;;;5050490;28;20206;-60
2023/11/28 03:36:41;;;;;;;4.22;3.33;;;2.10;99.90;;;;;;5053786;28;20225;-59
2023/11/28 03:39:08;;;;;;;5.03;4.53;;;2.10;99.90;;;;;;5054303;28;20207;-60
2023/11/28 03:41:35;;;;;;;4.40;4.00;;;2.10;99.90;;;;;;5054018;28;20206;-60
2023/11/28 03:44:02;;;;;;;5.38;4.05;;;2.10;99.90;;;;;;5054063;28;20203;-61
2023/11/28 03:46:29;;;;;;;4.55;3.95;;;2.10;99.90;;;;;;5053742;28;20319;-60
2023/11/28 03:48:56;;;;;;;6.15;5.00;;;2.10;99.90;;;;;;5053603;28;20710;-60
2023/11/28 03:51:22;;;;;;;5.60;4.45;;;2.10;99.90;;;;;;5053835;28;20226;-60
2023/11/28 03:53:51;;;;;;;8.85;5.05;;;2.10;99.90;;;;;;5053899;28;20301;-60
2023/11/28 03:56:19;;;;;;;3.97;3.67;;;2.10;99.90;;;;;;5053715;28;20237;-60
2023/11/28 03:58:46;;;;;;;4.20;3.80;;;2.10;99.90;;;;;;5053577;28;20206;-60
2023/11/28 04:01:13;;;;;;;5.72;4.65;;;2.10;99.90;;;;;;5053659;28;20209;-60
2023/11/28 04:03:40;;;;;;;6.78;4.53;;;2.10;99.90;;;;;;5053936;28;20301;-60
2023/11/28 04:06:08;;;;;;;4.82;4.43;;;2.10;99.90;;;;;;5053458;28;20590;-60
2023/11/28 04:08:35;;;;;;;6.43;5.22;;;2.10;99.90;;;;;;5052439;28;20210;-60
2023/11/28 04:11:04;;;;;;;4.60;3.90;;;2.10;99.90;;;;;;5053383;28;20730;-60
2023/11/28 04:13:31;;;;;;;5.65;4.65;;;2.10;99.90;;;;;;5053436;28;20242;-61
2023/11/28 04:15:58;;;;;;;6.90;5.55;;;2.10;99.90;;;;;;5053444;28;20284;-60
2023/11/28 04:18:27;;;;;;;7.03;5.93;;;2.10;99.90;;;;;;5053427;28;20699;-61
2023/11/28 04:20:54;;;;;;;7.90;4.75;;;2.10;99.90;;;;;;5053362;28;20218;-60
2023/11/28 04:23:21;;;;;;;6.50;5.20;;;2.10;99.90;;;;;;5053346;28;20343;-60
2023/11/28 04:25:47;;;;;;;7.20;5.80;;;2.10;99.90;;;;;;5052751;28;20606;-57
2023/11/28 04:28:16;;;;;;;5.13;4.70;;;2.10;99.90;;;;;;5053232;28;20209;-61
2023/11/28 04:30:42;;;;;;;5.97;5.07;;;2.10;99.90;;;;;;5053325;28;20212;-60
2023/11/28 04:33:09;;;;;;;9.52;6.43;;;2.10;99.90;;;;;;5053165;28;20236;-61
2023/11/28 04:35:36;;;;;;;4.97;4.57;;;2.10;99.90;;;;;;5053096;28;20228;-60
2023/11/28 04:38:03;;;;;;;6.18;5.57;;;2.10;99.90;;;;;;5052756;28;20206;-60
2023/11/28 04:40:30;;;;;;;7.88;6.18;;;2.10;99.90;;;;;;5052883;28;20708;-61
2023/11/28 04:42:56;;;;;;;6.90;5.10;;;2.10;99.90;;;;;;5053072;28;20198;-60
2023/11/28 04:45:24;;;;;;;7.80;5.32;;;2.10;99.90;;;;;;5052710;28;20232;-60
2023/11/28 04:47:51;;;;;;;7.28;6.13;;;2.10;99.90;;;;;;5052778;28;20209;-61
2023/11/28 04:50:18;;;;;;;7.07;5.53;;;2.10;99.90;;;;;;5052830;28;20229;-60
2023/11/28 04:52:45;;;;;;;7.18;6.43;;;2.10;99.90;;;;;;5052719;28;20280;-61
2023/11/28 04:55:12;;;;;;;8.30;6.13;;;2.10;99.90;;;;;;5052549;28;20233;-60
2023/11/28 04:57:39;;;;;;;11.38;6.20;;;2.10;99.90;;;;;;5052669;28;20700;-61
2023/11/28 05:00:08;;;;;;;7.05;6.28;;;2.00;99.90;;;;;;5052517;28;20677;-60
2023/11/28 05:02:36;;;;;;;9.98;6.82;;;2.10;99.90;;;;;;5052667;28;20582;-60
2023/11/28 05:05:05;;;;;;;6.60;5.90;;;2.00;99.90;;;;;;5052333;28;20238;-60
2023/11/28 05:07:32;;;;;;;7.13;6.00;;;2.10;99.90;;;;;;5051979;28;20206;-61
2023/11/28 05:09:59;;;;;;;6.72;5.80;;;2.00;99.90;;;;;;5052331;28;20748;-59
2023/11/28 05:12:26;;;;;;;6.60;5.75;;;2.00;99.90;;;;;;5052465;28;20229;-60
2023/11/28 05:14:53;;;;;;;6.63;5.68;;;2.10;99.90;;;;;;5052189;28;20226;-60
2023/11/28 05:17:20;;;;;;;9.70;6.30;;;2.00;99.90;;;;;;5052005;28;20685;-60
2023/11/28 05:19:48;;;;;;;10.80;6.93;;;2.10;99.90;;;;;;5052224;28;20301;-59
2023/11/28 05:22:15;;;;;;;9.98;7.28;;;2.10;99.90;;;;;;5051956;28;20211;-60
2023/11/28 05:24:41;;;;;;;9.75;8.10;;;2.10;99.90;;;;;;5051974;28;20210;-60
2023/11/28 05:27:08;;;;;;;9.48;6.65;;;2.10;99.90;;;;;;5051825;28;20224;-60
2023/11/28 05:29:35;;;;;;;8.00;6.30;;;2.10;99.90;;;;;;5051972;28;20856;-60
2023/11/28 05:32:04;;;;;;;7.57;6.30;;;2.00;99.90;;;;;;5051942;28;20222;-60
2023/11/28 05:34:31;;;;;;;9.50;7.40;;;2.00;99.90;;;;;;5051652;28;20210;-60
2023/11/28 05:36:59;;;;;;;10.10;6.75;;;2.00;99.90;;;;;;5051469;28;20217;-60
2023/11/28 05:39:27;;;;;;;9.38;6.18;;;2.00;99.90;;;;;;5051816;28;20672;-60
2023/11/28 05:41:54;;;;;;;11.90;7.75;;;2.00;99.90;;;;;;5051985;28;20209;-60
2023/11/28 05:44:21;;;;;;;8.93;6.80;;;2.00;99.90;;;;;;5051756;28;20213;-60
2023/11/28 05:46:48;;;;;;;7.80;7.10;;;1.90;99.90;;;;;;5051131;28;20708;-60
2023/11/28 05:49:15;;;;;;;9.98;6.88;;;1.90;99.90;;;;;;5051549;28;20213;-61
2023/11/28 05:51:41;;;;;;;7.75;6.35;;;1.90;99.90;;;;;;5051459;28;20226;-60
2023/11/28 05:54:10;;;;;;;7.60;6.50;;;1.90;99.90;;;;;;5051578;28;20206;-59
2023/11/28 05:56:36;;;;;;;8.20;7.40;;;1.90;99.90;;;;;;5051326;28;20659;-60
2023/11/28 05:59:03;;;;;;;6.70;5.97;;;1.90;99.90;;;;;;5051169;28;20594;-60
2023/11/28 06:01:30;;;;;;;11.02;6.95;;;1.90;99.90;;;;;;5050786;28;20289;-59
2023/11/28 06:03:57;;;;;;;6.45;5.80;;;1.90;99.90;;;;;;5050449;28;20236;-53
2023/11/28 06:06:24;;;;;;;7.50;5.38;;;1.90;99.90;;;;;;5050952;28;20236;-57
2023/11/28 06:08:51;;;;;;;7.07;5.88;;;1.90;99.90;;;;;;5050963;28;20209;-57
2023/11/28 06:11:19;;;;;;;6.95;5.68;;;1.90;99.90;;;;;;5051365;28;20202;-56
2023/11/28 06:13:46;;;;;;;6.05;5.53;;;1.90;99.90;;;;;;5051539;28;20593;-58
2023/11/28 06:16:14;;;;;;;6.45;5.75;;;1.90;99.90;;;;;;5050948;28;20317;-60
2023/11/28 06:18:41;;;;;;;6.45;5.50;;;1.90;99.90;;;;;;5051260;28;20264;-57
2023/11/28 06:21:09;;;;;;;6.18;5.57;;;1.90;99.90;;;;;;5051339;28;20634;-56
2023/11/28 06:23:36;;;;;;;5.70;4.30;;;1.90;99.90;;;;;;5051267;28;20289;-58
2023/11/28 06:26:03;;;;;;;5.82;5.18;;;1.90;99.90;;;;;;5051018;28;20655;-58
2023/11/28 06:28:31;;;;;;;6.53;5.47;;;1.90;99.90;;;;;;5050991;28;20293;-57
2023/11/28 06:30:58;;;;;;;5.03;4.18;;;1.90;99.90;;;;;;5051049;28;20216;-58
2023/11/28 06:33:25;;;;;;;5.43;4.80;;;1.90;99.90;;;;;;5051184;28;20455;-58
2023/11/28 06:35:52;;;;;;;5.53;4.65;;;1.90;99.90;;;;;;5051034;28;20232;-55
2023/11/28 06:38:19;;;;;;;5.75;4.30;;;1.90;99.90;;;;;;5050919;28;20210;-57
2023/11/28 06:40:46;;;;;;;5.97;4.50;;;1.90;99.90;;;;;;5050891;28;20297;-56
2023/11/28 06:43:12;;;;;;;4.35;3.95;;;1.90;99.90;;;;;;5050930;28;20257;-57
2023/11/28 06:45:42;;;;;;;5.88;4.53;;;1.90;99.90;;;;;;5050325;28;20834;-58
2023/11/28 06:48:08;;;;;;;6.85;6.18;;;1.90;99.90;;;;;;5048283;28;20203;-57
2023/11/28 06:50:36;;;;;;;6.75;6.15;;;1.90;99.90;;;;;;5050669;28;20289;-58
2023/11/28 06:53:03;;;;;;;5.43;4.93;;;1.90;99.90;;;;;;5050281;28;20312;-59
2023/11/28 06:55:30;;;;;;;6.85;5.10;;;1.90;99.90;;;;;;5050493;28;20222;-59
2023/11/28 06:57:57;;;;;;;5.07;4.57;;;1.90;99.90;;;;;;5050343;28;20194;-58
2023/11/28 07:00:24;;;;;;;4.78;3.85;;;1.90;99.90;;;;;;5051153;28;20786;-57
2023/11/28 07:02:52;;;;;;;4.10;3.80;;;1.90;99.90;;;;;;5051292;28;20209;-56
2023/11/28 07:05:19;;;;;;;5.03;4.20;;;1.90;99.90;;;;;;5050634;28;20303;-55
2023/11/28 07:07:46;;;;;;;4.50;4.10;;;1.90;99.90;;;;;;5050660;28;20210;-58
2023/11/28 07:10:12;;;;;;;4.85;3.90;;;2.00;99.90;;;;;;5052408;28;20603;-56
2023/11/28 07:12:39;;;;;;;5.82;5.22;;;2.00;99.90;;;;;;5054583;28;20230;-55
2023/11/28 07:15:07;;;;;;;6.35;4.45;;;2.00;99.90;;;;;;5054659;28;20761;-53
2023/11/28 07:17:34;;;;;;;11.10;5.47;;;2.00;99.90;;;;;;5054262;28;20198;-58
2023/11/28 07:20:02;;;;;;;3.38;3.17;;;2.00;99.90;;;;;;5054551;28;20206;-59
2023/11/28 07:22:29;;;;;;;3.75;3.30;;;2.00;99.90;;;;;;5054427;28;20202;-60
2023/11/28 07:24:56;;;;;;;4.30;3.90;;;2.00;99.90;;;;;;5054388;28;20789;-57
2023/11/28 07:27:23;;;;;;;4.38;3.92;;;2.00;99.90;;;;;;5054095;28;20213;-58
2023/11/28 07:29:50;;;;;;;4.28;3.80;;;2.10;99.90;;;;;;5053234;28;20202;-60
2023/11/28 07:32:17;;;;;;;3.40;3.10;;;2.10;99.90;;;;;;5054006;28;20227;-58
2023/11/28 07:34:43;;;;;;;4.72;4.32;;;2.10;99.90;;;;;;5054127;28;20206;-58
2023/11/28 07:37:12;;;;;;;4.90;3.25;;;2.10;99.90;;;;;;5053825;28;20212;-60
2023/11/28 07:39:38;;;;;;;3.10;2.90;;;2.10;99.90;;;;;;5053954;28;20206;-59
2023/11/28 07:42:06;;;;;;;4.50;3.00;;;2.10;99.90;;;;;;5054423;28;20559;-58
2023/11/28 07:44:33;;;;;;;3.83;3.47;;;2.20;99.90;;;;;;5054098;28;20326;-58
2023/11/28 07:47:00;;;;;;;4.00;3.20;;;2.20;99.90;;;;;;5053777;28;20296;-59
2023/11/28 07:49:26;;;;;;;3.15;2.92;;;2.20;99.90;;;;;;5053863;28;20206;-59
2023/11/28 07:51:53;;;;;;;2.38;2.28;;;2.20;99.90;;;;;;5053848;28;20210;-58
2023/11/28 07:54:22;;;;;;;5.10;4.80;;;2.20;99.90;;;;;;5053552;28;20655;-58
2023/11/28 07:56:48;;;;;;;3.25;2.95;;;2.20;99.90;;;;;;5053254;28;20218;-60
2023/11/28 07:59:15;;;;;;;2.65;2.10;;;2.20;99.90;;;;;;5053720;28;20216;-60
2023/11/28 08:01:42;;;;;;;4.80;4.35;;;2.20;99.90;;;;;;5053668;28;20697;-60
2023/11/28 08:04:09;;;;;;;3.95;2.60;;;2.20;99.90;;;;;;5053700;28;20209;-60
2023/11/28 08:06:36;;;;;;;2.10;2.00;;;2.20;99.90;;;;;;5068495;22;20245;-59
2023/11/28 08:09:04;;;;;;;2.95;2.63;;;2.20;99.90;;;;;;5033907;28;20269;-59
2023/11/28 08:11:32;;;;;;;2.50;2.30;;;2.30;99.90;;;;;;5033727;28;20203;-59
2023/11/28 08:13:59;;;;;;;2.33;2.17;;;2.30;99.90;;;;;;5033560;28;20259;-60
2023/11/28 08:16:26;;;;;;;1.90;1.80;;;2.30;99.90;;;;;;5033223;28;20223;-58
2023/11/28 08:18:53;;;;;;;1.77;1.67;;;2.30;99.90;;;;;;5033550;28;20210;-58
2023/11/28 08:21:20;;;;;;;1.80;1.70;;;2.30;99.90;;;;;;5033276;28;20211;-59
2023/11/28 08:23:47;;;;;;;1.77;1.65;;;2.30;99.90;;;;;;5033474;28;20208;-59
2023/11/28 08:26:14;;;;;;;1.98;1.38;;;2.30;99.90;;;;;;5033244;28;20258;-61
2023/11/28 08:28:43;;;;;;;1.55;1.45;;;2.30;99.90;;;;;;5033053;28;20587;-58
2023/11/28 08:31:09;;;;;;;2.03;1.80;;;2.30;99.90;;;;;;5033467;28;20733;-60
2023/11/28 08:33:36;;;;;;;2.10;1.90;;;2.30;99.90;;;;;;5033074;28;20234;-58
2023/11/28 08:36:04;;;;;;;2.42;2.22;;;2.30;99.90;;;;;;5033164;28;20241;-61
2023/11/28 08:38:31;;;;;;;2.90;2.00;;;2.30;99.90;;;;;;5033020;28;20294;-60
2023/11/28 08:40:58;;;;;;;2.30;2.10;;;2.30;99.90;;;;;;5033074;28;20264;-57
2023/11/28 08:43:25;;;;;;;4.18;3.78;;;2.30;99.90;;;;;;5032928;28;20253;-60
2023/11/28 08:45:53;;;;;;;4.80;3.97;;;2.30;99.90;;;;;;5033093;28;20298;-60
2023/11/28 08:48:20;;;;;;;4.68;3.65;;;2.20;99.90;;;;;;5032956;28;20301;-58
2023/11/28 08:50:46;;;;;;;4.10;3.40;;;2.30;99.90;;;;;;5032957;28;20206;-59
2023/11/28 08:53:13;;;;;;;2.60;2.40;;;2.30;99.90;;;;;;5032942;28;20223;-60
2023/11/28 08:55:42;;;;;;;2.53;2.33;;;2.30;99.90;;;;;;5032726;28;20301;-60
2023/11/28 08:58:09;;;;;;;2.45;2.25;;;2.30;99.90;;;;;;5032517;28;20215;-59
2023/11/28 09:00:36;;;;;;;1.55;1.50;;;2.30;99.90;;;;;;5032957;28;20211;-61
2023/11/28 09:03:05;;;;;;;1.92;1.83;;;2.20;99.90;;;;;;5032678;28;20700;-59
2023/11/28 09:05:32;;;;;;;1.85;1.75;;;2.30;99.90;;;;;;5032725;28;20284;-59
2023/11/28 09:08:00;;;;;;;1.20;1.20;;;2.20;99.90;;;;;;5032161;28;20242;-58
2023/11/28 09:10:26;;;;;;;1.63;1.52;;;2.20;99.90;;;;;;5032482;28;20261;-59
2023/11/28 09:12:53;;;;;;;1.30;1.30;;;2.20;99.90;;;;;;5032404;28;20229;-58
2023/11/28 09:15:20;;;;;;;3.03;1.63;;;2.20;99.90;;;;;;5032508;28;20321;-58
2023/11/28 09:17:47;;;;;;;1.60;1.50;;;2.20;99.90;;;;;;5032012;28;20254;-59
2023/11/28 09:20:15;;;;;;;1.40;1.30;;;2.20;99.90;;;;;;5032438;28;20291;-58
2023/11/28 09:22:42;;;;;;;1.85;1.75;;;2.20;99.90;;;;;;5032394;28;20203;-57
2023/11/28 09:25:10;;;;;;;2.17;2.00;;;2.20;99.90;;;;;;5032168;28;20588;-57
2023/11/28 09:27:37;;;;;;;2.75;2.55;;;2.20;99.90;;;;;;5031806;28;20242;-58
2023/11/28 09:30:04;;;;;;;2.58;2.33;;;2.20;99.90;;;;;;5032295;28;20217;-56
2023/11/28 09:32:31;;;;;;;1.83;1.73;;;2.20;99.90;;;;;;5031467;28;20214;-56
2023/11/28 09:34:58;;;;;;;1.95;1.85;;;2.20;99.90;;;;;;5032030;28;20207;-56
2023/11/28 09:37:26;;;;;;;1.65;1.50;;;2.20;99.90;;;;;;5031677;28;20223;-58
2023/11/28 09:39:53;;;;;;;1.83;1.73;;;2.20;99.90;;;;;;5033039;28;20592;-59
2023/11/28 09:42:23;;;;;;;3.38;1.73;;;2.20;99.90;;;;;;5033003;28;20215;-59
2023/11/28 09:44:51;;;;;;;2.38;2.17;;;2.20;99.90;;;;;;5031959;28;20709;-58
2023/11/28 09:47:21;;;;;;;1.38;1.38;;;2.20;99.90;;;;;;5031698;28;20314;-56
2023/11/28 09:49:50;;;;;;;2.10;2.00;;;2.20;99.90;;;;;;5030429;28;20756;-58
2023/11/28 09:52:20;;;;;;;2.70;2.50;;;2.20;99.90;;;;;;5031133;28;20203;-57
2023/11/28 09:54:51;;;;;;;3.88;2.90;;;2.20;99.90;;;;;;5031259;28;20238;-56
2023/11/28 09:57:20;;;;;;;2.78;2.58;;;2.20;99.90;;;;;;5030758;28;20307;-56
2023/11/28 09:59:50;;;;;;;1.90;1.80;;;2.30;99.90;;;;;;5031335;28;20268;-54
2023/11/28 10:02:17;;;;;;;2.65;2.05;;;2.30;99.90;;;;;;5031117;28;20217;-58
2023/11/28 10:04:44;;;;;;;3.10;2.70;;;2.30;99.90;;;;;;5030689;28;20202;-55
2023/11/28 10:07:14;;;;;;;2.15;2.05;;;2.30;99.90;;;;;;5030753;28;20325;-59
2023/11/28 10:09:47;;;;;;;1.90;1.80;;;2.30;99.90;;;;;;5031068;28;20605;-58
2023/11/28 10:12:16;;;;;;;2.78;2.58;;;2.30;99.90;;;;;;5030984;28;20207;-57
2023/11/28 10:14:44;;;;;;;1.70;1.60;;;2.30;99.90;;;;;;5030814;28;20578;-54
2023/11/28 10:17:11;;;;;;;2.80;2.60;;;2.30;99.90;;;;;;5029837;28;20253;-57
2023/11/28 10:19:38;;;;;;;2.42;2.25;;;2.40;99.90;;;;;;5030815;28;20211;-56
2023/11/28 10:22:06;;;;;;;2.88;2.65;;;2.40;99.90;;;;;;5030516;28;20876;-58
2023/11/28 10:24:33;;;;;;;2.67;2.47;;;2.40;99.90;;;;;;5030612;28;20297;-59
2023/11/28 10:27:01;;;;;;;5.22;4.25;;;2.40;99.90;;;;;;5030223;28;20227;-58
2023/11/28 10:29:30;;;;;;;3.05;2.85;;;2.40;99.90;;;;;;5030487;28;20206;-59
2023/11/28 10:31:57;;;;;;;3.03;2.92;;;2.40;99.90;;;;;;5029990;28;20215;-59
2023/11/28 10:34:24;;;;;;;3.60;3.30;;;2.40;99.90;;;;;;5029867;28;20313;-59
2023/11/28 10:36:51;;;;;;;3.22;2.95;;;2.40;99.90;;;;;;5029923;28;20238;-59
2023/11/28 10:39:19;;;;;;;3.00;2.90;;;2.40;99.90;;;;;;5030493;28;20203;-58
2023/11/28 10:41:47;;;;;;;2.72;2.60;;;2.30;99.90;;;;;;5030225;28;20207;-59
2023/11/28 10:44:14;;;;;;;3.70;3.38;;;2.30;99.90;;;;;;5031672;28;20297;-59
2023/11/28 10:46:42;;;;;;;3.00;2.88;;;2.30;99.90;;;;;;5034183;28;20779;-57
2023/11/28 10:49:09;;;;;;;4.03;3.55;;;2.40;99.90;;;;;;5034397;28;20203;-59
2023/11/28 10:51:36;;;;;;;3.63;3.17;;;2.40;99.90;;;;;;5034120;28;20290;-59
2023/11/28 10:54:08;;;;;;;3.45;3.25;;;2.30;99.90;;;;;;5034386;28;20227;-56
2023/11/28 10:56:46;;;;;;;3.15;2.95;;;2.40;99.90;;;;;;5033504;28;20713;-58
2023/11/28 10:59:22;;;;;;;2.95;2.75;;;2.40;99.90;;;;;;5034352;28;20784;-59
2023/11/28 11:01:51;;;;;;;4.00;3.70;;;2.40;99.90;;;;;;5034350;28;20581;-55
2023/11/28 11:04:18;;;;;;;3.45;3.25;;;2.40;99.90;;;;;;5034252;28;20737;-58
2023/11/28 11:06:45;;;;;;;2.88;2.67;;;2.40;99.90;;;;;;5033706;28;20713;-59
2023/11/28 11:09:13;;;;;;;3.50;3.30;;;2.40;99.90;;;;;;5034066;28;20741;-58
2023/11/28 11:11:42;;;;;;;3.47;3.10;;;2.40;99.90;;;;;;5034166;28;20265;-57
2023/11/28 11:14:18;;;;;;;3.40;3.20;;;2.50;99.90;;;;;;5033464;28;20234;-59
2023/11/28 11:16:54;;;;;;;3.53;3.28;;;2.50;99.90;;;;;;5033487;28;20313;-59
2023/11/28 11:19:22;;;;;;;3.35;3.05;;;2.60;99.90;;;;;;5033997;28;20298;-59
2023/11/28 11:21:56;;;;;;;2.97;2.78;;;2.60;99.90;;;;;;5033569;28;20203;-56
2023/11/28 11:24:23;;;;;;;3.75;3.50;;;2.70;99.90;;;;;;5033802;28;20210;-59
2023/11/28 11:26:50;;;;;;;3.53;3.22;;;2.70;99.90;;;;;;5033461;28;20663;-57
2023/11/28 11:29:37;;;;;;;3.75;3.55;;;2.70;99.90;;;;;;5033550;28;20290;-59
2023/11/28 11:32:10;;;;;;;2.85;2.65;;;2.60;99.90;;;;;;5033305;28;20246;-59
2023/11/28 11:34:40;;;;;;;3.55;3.25;;;2.60;99.90;;;;;;5033870;28;20262;-58
2023/11/28 11:37:09;;;;;;;4.40;3.60;;;2.60;99.90;;;;;;5033366;28;20641;-58
2023/11/28 11:39:36;;;;;;;4.40;4.00;;;2.70;99.90;;;;;;5033634;28;20203;-58
2023/11/28 11:42:04;;;;;;;3.67;3.47;;;2.70;99.90;;;;;;5033501;28;20211;-59
2023/11/28 11:44:30;;;;;;;4.28;3.97;;;2.70;99.90;;;;;;5033244;28;20293;-59
2023/11/28 11:47:05;;;;;;;3.67;3.30;;;2.70;99.90;;;;;;5033302;28;20231;-59
2023/11/28 11:49:34;;;;;;;4.00;3.65;;;2.70;99.90;;;;;;5033603;28;20209;-59
2023/11/28 11:52:01;;;;;;;5.00;4.50;;;2.70;99.90;;;;;;5032837;28;20683;-57
2023/11/28 11:54:28;;;;;;;8.02;7.25;;;2.70;99.90;;;;;;5031559;28;20230;-55
2023/11/28 11:56:54;;;;;;;4.57;4.20;;;2.70;99.90;;;;;;5032060;28;20232;-59
2023/11/28 11:59:25;;;;;;;4.00;3.70;;;2.70;99.90;;;;;;5030310;28;20206;-59
2023/11/28 12:01:52;;;;;;;7.55;5.53;;;2.70;99.90;;;;;;5033044;28;20203;-58
2023/11/28 12:04:19;;;;;;;4.93;4.55;;;2.60;99.90;;;;;;5032311;28;20202;-57
2023/11/28 12:07:01;;;;;;;5.00;4.55;;;2.60;99.90;;;;;;5032113;28;20613;-58
2023/11/28 12:09:28;;;;;;;7.00;5.93;;;2.60;99.90;;;;;;5032681;28;20222;-56
2023/11/28 12:11:55;;;;;;;4.15;3.75;;;2.50;99.90;;;;;;5032790;28;20221;-59
2023/11/28 12:14:22;;;;;;;3.90;3.70;;;2.50;99.90;;;;;;5032402;28;20218;-59
2023/11/28 12:16:49;;;;;;;4.60;4.30;;;2.50;99.90;;;;;;5032731;28;20231;-55
2023/11/28 12:19:16;;;;;;;4.65;4.35;;;2.50;99.90;;;;;;5033008;28;20222;-59
2023/11/28 12:21:43;;;;;;;4.07;3.88;;;2.60;99.90;;;;;;5032861;28;20244;-59
2023/11/28 12:24:11;;;;;;;3.42;3.22;;;2.60;99.90;;;;;;5032306;28;20289;-59
2023/11/28 12:26:40;;;;;;;5.18;4.78;;;2.60;99.90;;;;;;5032285;28;20322;-60
2023/11/28 12:29:07;;;;;;;3.85;3.55;;;2.60;99.90;;;;;;5032599;28;20213;-59
2023/11/28 12:31:34;;;;;;;4.40;4.10;;;2.60;99.90;;;;;;5032591;28;20645;-59
2023/11/28 12:34:01;;;;;;;3.72;3.53;;;2.50;99.90;;;;;;5032278;28;20231;-59
2023/11/28 12:36:28;;;;;;;4.97;4.65;;;2.40;99.90;;;;;;5032474;28;20309;-57
2023/11/28 12:38:57;;;;;;;5.03;4.72;;;2.40;99.90;;;;;;5031999;28;20211;-58
2023/11/28 12:41:35;;;;;;;4.57;4.28;;;2.30;99.90;;;;;;5032432;28;20708;-58
2023/11/28 12:44:04;;;;;;;4.45;4.05;;;2.30;99.90;;;;;;5032481;28;20605;-57
2023/11/28 12:46:31;;;;;;;4.10;3.88;;;2.30;99.90;;;;;;5032090;28;20227;-55
2023/11/28 12:48:59;;;;;;;5.28;4.93;;;2.20;99.90;;;;;;5032311;28;20427;-55
2023/11/28 12:51:28;;;;;;;5.68;4.60;;;2.20;99.90;;;;;;5032020;28;20215;-58
2023/11/28 12:54:00;;;;;;;4.30;4.10;;;2.20;99.90;;;;;;5032279;28;20705;-57
2023/11/28 12:56:33;;;;;;;3.65;3.45;;;2.20;99.90;;;;;;5032046;28;20279;-57
2023/11/28 12:59:01;;;;;;;5.50;5.10;;;2.20;99.90;;;;;;5032074;28;20674;-58